Time;durP1;ratioP1;P1;durP2;ratioP2;P2;SDS_P1;SDS_P2;PMS_P1;PMS_P2;Temp;Humidity;BMP_temperature;BMP_pressure;BME280_temperature;BME280_humidity;BME280_pressure;Samples;Min_cycle;Max_cycle;Signal;HPM_P1;HPM_P2
2023/01/19 00:00:46;;;;;;;;;;;;;;;11.33;69.98;99626.16;1051829;28;649;-63
2023/01/19 00:01:37;;;;;;;;;;;;;;;11.34;69.93;99619.84;1051935;28;1191;-64
2023/01/19 00:02:27;;;;;;;;;;;;;;;11.35;69.92;99615.34;1048621;28;650;-64
2023/01/19 00:03:18;;;;;;;;;;;;;;;11.35;69.52;99610.88;1052491;28;1139;-64
2023/01/19 00:04:08;;;;;;;;;;;;;;;11.37;70.14;99598.25;1048543;28;642;-64
2023/01/19 00:04:59;;;;;;;;;;;;;;;11.36;69.46;99607.22;1049975;28;1151;-64
2023/01/19 00:05:50;;;;;;;;;;;;;;;11.35;70.13;99592.19;1045217;28;657;-64
2023/01/19 00:06:40;;;;;;;;;;;;;;;11.37;70.32;99592.91;1049342;28;736;-64
2023/01/19 00:07:31;;;;;;;;;;;;;;;11.35;69.98;99586.84;1051718;28;1182;-64
2023/01/19 00:08:21;;;;;;;;;;;;;;;11.32;70.21;99584.47;1051984;28;829;-64
2023/01/19 00:09:11;;;;;;;;;;;;;;;11.30;70.35;99585.56;1053603;28;1166;-64
2023/01/19 00:10:02;;;;;;;;;;;;;;;11.31;69.74;99589.91;1052023;28;707;-64
2023/01/19 00:10:52;;;;;;;;;;;;;;;11.31;70.37;99585.44;1052009;28;1154;-64
2023/01/19 00:11:43;;;;;;;;;;;;;;;11.30;69.67;99581.06;1051940;28;718;-64
2023/01/19 00:12:33;;;;;;;;;;;;;;;11.29;70.55;99578.53;1052209;28;662;-64
2023/01/19 00:13:24;;;;;;;;;;;;;;;11.28;70.00;99574.22;1051799;28;705;-64
2023/01/19 00:14:14;;;;;;;;;;;;;;;11.25;70.42;99580.66;1052202;28;701;-64
2023/01/19 00:15:05;;;;;;;;;;;;;;;11.26;70.62;99571.69;1052269;28;996;-64
2023/01/19 00:15:55;;;;;;;;;;;;;;;11.28;70.01;99576.88;1052207;28;586;-64
2023/01/19 00:16:46;;;;;;;;;;;;;;;11.26;69.72;99582.34;1051901;28;801;-64
2023/01/19 00:17:39;;;;;;;;;;;;;;;11.26;70.50;99579.69;1052086;28;646;-64
2023/01/19 00:18:30;;;;;;;;;;;;;;;11.29;70.33;99583.88;1050921;28;1091;-64
2023/01/19 00:19:20;;;;;;;;;;;;;;;11.31;70.21;99573.91;1052175;28;681;-63
2023/01/19 00:20:10;;;;;;;;;;;;;;;11.30;70.13;99581.06;1052452;28;674;-64
2023/01/19 00:21:01;;;;;;;;;;;;;;;11.28;69.84;99577.72;1051814;28;1147;-61
2023/01/19 00:21:51;;;;;;;;;;;;;;;11.26;70.50;99579.69;1048925;28;653;-64
2023/01/19 00:22:42;;;;;;;;;;;;;;;11.25;69.95;99578.00;1047821;28;697;-64
2023/01/19 00:23:32;;;;;;;;;;;;;;;11.26;70.56;99582.34;1052138;28;720;-64
2023/01/19 00:24:23;;;;;;;;;;;;;;;11.29;69.76;99582.06;1049378;28;693;-64
2023/01/19 00:25:13;;;;;;;;;;;;;;;11.31;69.85;99588.09;1052011;28;673;-64
2023/01/19 00:26:03;;;;;;;;;;;;;;;11.31;69.90;99608.59;1052360;28;1894;-64
2023/01/19 00:26:54;;;;;;;;;;;;;;;11.31;70.39;99600.59;1051927;28;634;-64
2023/01/19 00:27:48;;;;;;;;;;;;;;;11.31;70.34;99604.09;1050344;28;725;-64
2023/01/19 00:28:38;;;;;;;;;;;;;;;11.30;69.77;99602.41;1051891;28;1225;-64
2023/01/19 00:29:32;;;;;;;;;;;;;;;11.32;70.32;99600.47;1051771;28;693;-64
2023/01/19 00:30:22;;;;;;;;;;;;;;;11.32;69.64;99586.28;1048569;28;669;-64
2023/01/19 00:31:13;;;;;;;;;;;;;;;11.35;70.64;99592.19;1047087;28;1104;-64
2023/01/19 00:32:03;;;;;;;;;;;;;;;11.35;70.73;99591.34;1051919;28;698;-64
2023/01/19 00:32:53;;;;;;;;;;;;;;;11.34;70.52;99587.00;1052062;28;1217;-65
2023/01/19 00:33:47;;;;;;;;;;;;;;;11.33;70.71;99586.16;1050869;28;1066;-65
2023/01/19 00:34:48;;;;;;;;;;;;;;;11.34;70.72;99582.50;1052250;28;1038;-64
2023/01/19 00:35:38;;;;;;;;;;;;;;;11.34;69.95;99587.84;1050457;28;641;-64
2023/01/19 00:36:28;;;;;;;;;;;;;;;11.35;70.62;99578.84;1051562;28;1140;-65
2023/01/19 00:37:19;;;;;;;;;;;;;;;11.34;70.70;99589.66;1051736;28;937;-64
2023/01/19 00:38:09;;;;;;;;;;;;;;;11.36;70.00;99593.88;1052100;28;646;-64
2023/01/19 00:39:00;;;;;;;;;;;;;;;11.34;70.79;99589.66;1051801;28;658;-64
2023/01/19 00:39:50;;;;;;;;;;;;;;;11.36;70.75;99583.22;1052053;28;723;-64
2023/01/19 00:40:41;;;;;;;;;;;;;;;11.37;70.70;99594.72;1052301;28;665;-64
2023/01/19 00:42:40;;;;;;;;;;;;;;;11.33;70.86;99583.47;1048908;28;729;-64
2023/01/19 00:43:30;;;;;;;;;;;;;;;11.35;70.56;99602.88;1049005;28;704;-64
2023/01/19 00:44:21;;;;;;;;;;;;;;;11.35;70.24;99602.00;1051052;28;1079;-64
2023/01/19 00:45:11;;;;;;;;;;;;;;;11.36;70.64;99599.22;1051828;28;1067;-64
2023/01/19 00:46:02;;;;;;;;;;;;;;;11.33;70.66;99602.16;1052406;28;1905;-64
2023/01/19 00:46:52;;;;;;;;;;;;;;;11.30;70.91;99599.75;1052143;28;1078;-64
2023/01/19 00:47:43;;;;;;;;;;;;;;;11.33;70.31;99599.47;1045879;28;1079;-64
2023/01/19 00:48:33;;;;;;;;;;;;;;;11.34;70.67;99601.16;1047711;28;1149;-64
2023/01/19 00:49:24;;;;;;;;;;;;;;;11.32;70.12;99604.94;1050853;28;1113;-64
2023/01/19 00:50:15;;;;;;;;;;;;;;;11.34;69.94;99606.50;1052254;28;1059;-64
2023/01/19 00:51:06;;;;;;;;;;;;;;;11.31;70.49;99597.94;1050321;28;1078;-64
2023/01/19 00:51:56;;;;;;;;;;;;;;;11.32;70.79;99603.13;1051260;28;1278;-64
2023/01/19 00:52:46;;;;;;;;;;;;;;;11.35;70.22;99607.34;1052603;28;1083;-64
2023/01/19 00:53:37;;;;;;;;;;;;;;;11.35;70.53;99604.69;1051060;28;1004;-64
2023/01/19 00:54:27;;;;;;;;;;;;;;;11.34;70.88;99601.16;1051637;28;1169;-64
2023/01/19 00:55:18;;;;;;;;;;;;;;;11.35;70.19;99602.88;1051222;28;1175;-65
2023/01/19 00:56:08;;;;;;;;;;;;;;;11.32;70.73;99600.47;1052233;28;1067;-64
2023/01/19 00:56:59;;;;;;;;;;;;;;;11.34;70.65;99603.84;1048128;28;681;-65
2023/01/19 00:57:49;;;;;;;;;;;;;;;11.29;70.42;99600.72;1051363;28;661;-64
2023/01/19 00:58:39;;;;;;;;;;;;;;;11.29;71.15;99595.38;1047883;28;705;-64
2023/01/19 00:59:30;;;;;;;;;;;;;;;11.31;70.45;99597.94;1051089;28;712;-64
2023/01/19 01:00:20;;;;;;;;;;;;;;;11.29;70.95;99603.38;1048900;28;693;-64
2023/01/19 01:01:11;;;;;;;;;;;;;;;11.27;71.05;99596.53;1048036;28;638;-64
2023/01/19 01:02:01;;;;;;;;;;;;;;;11.24;70.57;99599.47;1048066;28;1039;-64
2023/01/19 01:02:52;;;;;;;;;;;;;;;11.23;70.61;99598.63;1052566;28;681;-65
2023/01/19 01:03:42;;;;;;;;;;;;;;;11.25;70.57;99593.16;1051558;28;1067;-65
2023/01/19 01:04:32;;;;;;;;;;;;;;;11.29;70.40;99597.22;1052008;28;674;-65
2023/01/19 01:05:23;;;;;;;;;;;;;;;11.31;70.22;99589.91;1053099;28;626;-64
2023/01/19 01:06:13;;;;;;;;;;;;;;;11.29;70.59;99595.38;1051876;28;1914;-64
2023/01/19 01:07:04;;;;;;;;;;;;;;;11.31;70.07;99597.94;1052347;28;637;-64
2023/01/19 01:07:54;;;;;;;;;;;;;;;11.32;70.18;99604.94;1051861;28;713;-64
2023/01/19 01:08:45;;;;;;;;;;;;;;;11.31;70.91;99604.09;1051675;28;768;-64
2023/01/19 01:09:35;;;;;;;;;;;;;;;11.29;70.26;99606.06;1051835;28;638;-65
2023/01/19 01:10:26;;;;;;;;;;;;;;;11.29;70.45;99602.53;1051946;28;1170;-65
2023/01/19 01:11:16;;;;;;;;;;;;;;;11.29;71.04;99600.72;1051735;28;789;-64
2023/01/19 01:12:06;;;;;;;;;;;;;;;11.28;70.64;99604.41;1051893;28;862;-64
2023/01/19 01:12:57;;;;;;;;;;;;;;;11.29;70.67;99599.88;1051814;28;858;-64
2023/01/19 01:13:47;;;;;;;;;;;;;;;11.29;70.67;99607.88;1051903;28;740;-65
2023/01/19 01:14:38;;;;;;;;;;;;;;;11.29;71.10;99600.72;1051687;28;601;-64
2023/01/19 01:15:28;;;;;;;;;;;;;;;11.28;71.29;99604.41;1051762;28;1146;-65
2023/01/19 01:16:19;;;;;;;;;;;;;;;11.28;70.14;99604.41;1047674;28;666;-65
2023/01/19 01:17:10;;;;;;;;;;;;;;;11.25;70.80;99598.47;1049880;28;1143;-65
2023/01/19 01:18:00;;;;;;;;;;;;;;;11.25;70.67;99604.66;1048301;28;654;-65
2023/01/19 01:18:51;;;;;;;;;;;;;;;11.23;71.08;99595.94;1050523;28;1159;-65
2023/01/19 01:19:41;;;;;;;;;;;;;;;11.23;70.60;99606.63;1051872;28;609;-64
2023/01/19 01:20:33;;;;;;;;;;;;;;;11.21;71.52;99603.22;1052374;28;1127;-65
2023/01/19 01:21:24;;;;;;;;;;;;;;;11.21;70.66;99605.91;1053183;28;736;-65
2023/01/19 01:22:14;;;;;;;;;;;;;;;11.20;70.59;99606.88;1052481;28;997;-65
2023/01/19 01:23:04;;;;;;;;;;;;;;;11.21;70.79;99605.06;1052857;28;658;-64
2023/01/19 01:23:55;;;;;;;;;;;;;;;11.20;71.34;99606.88;1052429;28;1163;-64
2023/01/19 01:24:45;;;;;;;;;;;;;;;11.23;71.23;99605.78;1052647;28;665;-64
2023/01/19 01:25:37;;;;;;;;;;;;;;;11.22;71.38;99609.41;1052562;28;706;-64
2023/01/19 01:26:27;;;;;;;;;;;;;;;11.21;71.27;99602.38;1053182;28;1894;-64
2023/01/19 01:27:18;;;;;;;;;;;;;;;11.19;70.73;99602.53;1052553;28;832;-64
2023/01/19 01:28:08;;;;;;;;;;;;;;;11.22;70.57;99609.41;1052649;28;1140;-64
2023/01/19 01:28:59;;;;;;;;;;;;;;;11.19;71.13;99610.53;1048929;28;888;-64
2023/01/19 01:29:49;;;;;;;;;;;;;;;11.21;71.25;99597.91;1048907;28;1099;-64
2023/01/19 01:30:40;;;;;;;;;;;;;;;11.19;71.28;99604.34;1048642;28;674;-64
2023/01/19 01:31:30;;;;;;;;;;;;;;;11.21;71.28;99600.56;1051330;28;1100;-64
2023/01/19 01:32:20;;;;;;;;;;;;;;;11.19;71.30;99599.84;1049250;28;673;-64
2023/01/19 01:33:11;;;;;;;;;;;;;;;11.21;70.80;99599.72;1052559;28;610;-65
2023/01/19 01:34:02;;;;;;;;;;;;;;;11.19;70.60;99599.00;1050061;28;1079;-65
2023/01/19 01:34:52;;;;;;;;;;;;;;;11.19;70.80;99602.53;1052513;28;643;-65
2023/01/19 01:35:43;;;;;;;;;;;;;;;11.20;70.97;99598.03;1052376;28;1169;-64
2023/01/19 01:36:34;;;;;;;;;;;;;;;11.18;70.55;99598.16;1052736;28;681;-65
2023/01/19 01:37:24;;;;;;;;;;;;;;;11.19;70.80;99605.19;1053268;28;688;-64
2023/01/19 01:38:15;;;;;;;;;;;;;;;11.18;70.62;99602.66;1052478;28;1032;-65
2023/01/19 01:39:05;;;;;;;;;;;;;;;11.17;70.71;99599.13;1052926;28;1146;-65
2023/01/19 01:39:56;;;;;;;;;;;;;;;11.15;71.55;99606.41;1052392;28;682;-65
2023/01/19 01:40:46;;;;;;;;;;;;;;;11.16;71.07;99608.13;1053016;28;1222;-65
2023/01/19 01:41:36;;;;;;;;;;;;;;;11.13;71.09;99606.56;1052769;28;718;-65
2023/01/19 01:42:27;;;;;;;;;;;;;;;11.15;70.96;99611.75;1052535;28;646;-65
2023/01/19 01:43:17;;;;;;;;;;;;;;;11.14;71.49;99607.41;1052057;28;874;-65
2023/01/19 01:44:11;;;;;;;;;;;;;;;11.14;71.51;99612.72;1052410;28;617;-65
2023/01/19 01:45:02;;;;;;;;;;;;;;;11.17;71.32;99615.13;1049489;28;682;-65
2023/01/19 01:45:53;;;;;;;;;;;;;;;11.15;71.40;99609.09;1052511;28;1033;-65
2023/01/19 01:46:44;;;;;;;;;;;;;;;11.14;70.80;99618.91;1049534;28;658;-65
2023/01/19 01:47:34;;;;;;;;;;;;;;;11.17;71.29;99614.28;1050928;28;1151;-65
2023/01/19 01:48:25;;;;;;;;;;;;;;;11.16;70.84;99621.44;1048888;28;693;-64
2023/01/19 01:49:16;;;;;;;;;;;;;;;11.16;70.97;99612.59;1052445;28;1159;-64
2023/01/19 01:50:06;;;;;;;;;;;;;;;11.19;70.95;99615.84;1053381;28;673;-65
2023/01/19 01:52:06;;;;;;;;;;;;;;;11.24;70.99;99624.31;1052332;28;1545;-64
2023/01/19 01:52:56;;;;;;;;;;;;;;;11.26;70.91;99618.84;1048953;28;634;-64
2023/01/19 01:53:46;;;;;;;;;;;;;;;11.26;70.82;99626.84;1052091;28;1366;-65
2023/01/19 01:54:37;;;;;;;;;;;;;;;11.24;70.42;99624.31;1048909;28;639;-64
2023/01/19 01:55:27;;;;;;;;;;;;;;;11.27;70.73;99623.19;1047498;28;1222;-64
2023/01/19 01:56:18;;;;;;;;;;;;;;;11.25;70.19;99626.00;1045055;28;696;-64
2023/01/19 01:57:11;;;;;;;;;;;;;;;11.25;70.52;99630.47;1051569;28;1115;-64
2023/01/19 01:58:01;;;;;;;;;;;;;;;11.24;71.21;99628.78;1048942;28;911;-64
2023/01/19 01:58:52;;;;;;;;;;;;;;;11.23;71.25;99627.94;1052261;28;689;-64
2023/01/19 01:59:42;;;;;;;;;;;;;;;11.23;70.55;99635.94;1052030;28;701;-64
2023/01/19 02:02:49;;;;;;;;;;;;;;;11.24;70.97;99632.31;1052715;28;717;-64
2023/01/19 02:02:53;;;;;;;;;;;;;;;11.27;71.03;99628.53;1048817;28;1553;-64
2023/01/19 02:03:44;;;;;;;;;;;;;;;11.23;70.74;99633.28;1050405;28;693;-64
2023/01/19 02:04:34;;;;;;;;;;;;;;;11.23;70.60;99635.94;1052659;28;711;-64
2023/01/19 02:05:25;;;;;;;;;;;;;;;11.23;70.45;99633.28;1052663;28;1258;-64
2023/01/19 02:06:15;;;;;;;;;;;;;;;11.24;70.46;99623.47;1053049;28;1957;-64
2023/01/19 02:14:01;;;;;;;;;;;;;;;11.20;71.21;99638.03;1053584;28;645;-64
2023/01/19 02:14:51;;;;;;;;;;;;;;;11.22;70.53;99646.75;1052295;28;1190;-64
2023/01/19 02:15:42;;;;;;;;;;;;;;;11.22;70.55;99646.75;1052305;28;822;-64
2023/01/19 02:16:32;;;;;;;;;;;;;;;11.22;71.01;99642.25;1052367;28;750;-64
2023/01/19 02:17:22;;;;;;;;;;;;;;;11.24;71.01;99648.31;1052704;28;634;-64
2023/01/19 02:18:13;;;;;;;;;;;;;;;11.24;70.67;99645.63;1052382;28;693;-64
2023/01/19 02:19:03;;;;;;;;;;;;;;;11.24;70.92;99650.13;1052442;28;1166;-64
2023/01/19 02:19:54;;;;;;;;;;;;;;;11.24;69.91;99650.97;1053543;28;746;-64
2023/01/19 02:20:44;;;;;;;;;;;;;;;11.24;70.42;99650.97;1052898;28;1230;-64
2023/01/19 02:21:35;;;;;;;;;;;;;;;11.27;70.23;99655.19;1052016;28;1378;-64
2023/01/19 02:22:26;;;;;;;;;;;;;;;11.27;70.14;99661.38;1053176;28;732;-64
2023/01/19 02:23:17;;;;;;;;;;;;;;;11.25;70.76;99668.66;1052844;28;999;-64
2023/01/19 02:24:07;;;;;;;;;;;;;;;11.25;70.05;99660.66;1048335;28;626;-64
2023/01/19 02:24:58;;;;;;;;;;;;;;;11.26;70.79;99665.03;1048180;28;1047;-64
2023/01/19 02:25:48;;;;;;;;;;;;;;;11.26;70.11;99659.69;1052407;28;657;-64
2023/01/19 02:26:39;;;;;;;;;;;;;;;11.28;70.33;99665.72;1052565;28;638;-64
2023/01/19 02:27:29;;;;;;;;;;;;;;;11.29;70.59;99674.56;1052249;28;1226;-64
2023/01/19 02:28:19;;;;;;;;;;;;;;;11.28;70.15;99683.56;1049479;28;709;-64
2023/01/19 02:29:10;;;;;;;;;;;;;;;11.28;70.71;99672.88;1049375;28;1186;-64
2023/01/19 02:30:02;;;;;;;;;;;;;;;11.29;70.05;99690.56;1048966;28;665;-64
2023/01/19 02:30:52;;;;;;;;;;;;;;;11.29;70.85;99674.56;1048513;28;673;-64
2023/01/19 02:31:44;;;;;;;;;;;;;;;11.29;70.39;99677.22;1052383;28;908;-63
2023/01/19 02:32:34;;;;;;;;;;;;;;;11.27;70.09;99676.53;1052850;28;956;-64
2023/01/19 02:33:25;;;;;;;;;;;;;;;11.26;70.66;99672.19;1052665;28;646;-64
2023/01/19 02:34:15;;;;;;;;;;;;;;;11.27;70.08;99681.88;1052190;28;1222;-64
2023/01/19 02:35:05;;;;;;;;;;;;;;;11.27;70.03;99681.88;1052984;28;684;-64
2023/01/19 02:35:56;;;;;;;;;;;;;;;11.29;69.91;99679.88;1049954;28;686;-64
2023/01/19 02:36:46;;;;;;;;;;;;;;;11.27;70.47;99688.03;1053051;28;633;-64
2023/01/19 02:37:38;;;;;;;;;;;;;;;11.27;70.33;99688.03;1053460;28;731;-64
2023/01/19 02:38:29;;;;;;;;;;;;;;;11.26;70.08;99686.34;1052312;28;571;-64
2023/01/19 02:39:19;;;;;;;;;;;;;;;11.27;70.11;99689.88;1052833;28;929;-64
2023/01/19 02:40:10;;;;;;;;;;;;;;;11.26;70.32;99680.19;1052211;28;618;-64
2023/01/19 02:41:01;;;;;;;;;;;;;;;11.28;69.92;99689.75;1048886;28;642;-64
2023/01/19 02:41:51;;;;;;;;;;;;;;;11.27;70.18;99687.19;1051583;28;1217;-64
2023/01/19 02:42:42;;;;;;;;;;;;;;;11.23;69.88;99686.63;1048903;28;658;-64
2023/01/19 02:43:33;;;;;;;;;;;;;;;11.24;69.99;99698.97;1047858;28;1040;-63
2023/01/19 02:44:23;;;;;;;;;;;;;;;11.24;70.53;99688.31;1048758;28;610;-64
2023/01/19 02:45:14;;;;;;;;;;;;;;;11.27;70.45;99693.38;1049409;28;653;-64
2023/01/19 02:46:04;;;;;;;;;;;;;;;11.29;70.31;99691.41;1048631;28;1970;-64
2023/01/19 02:46:54;;;;;;;;;;;;;;;11.28;70.22;99696.91;1050807;28;1214;-64
2023/01/19 02:47:45;;;;;;;;;;;;;;;11.28;70.41;99697.75;1052104;28;943;-64
2023/01/19 02:48:35;;;;;;;;;;;;;;;11.25;70.64;99690.00;1052887;28;1260;-64
2023/01/19 02:49:26;;;;;;;;;;;;;;;11.27;69.92;99692.53;1053498;28;696;-64
2023/01/19 02:50:16;;;;;;;;;;;;;;;11.28;70.40;99691.56;1051956;28;1012;-64
2023/01/19 02:51:07;;;;;;;;;;;;;;;11.23;70.58;99689.28;1052559;28;737;-64
2023/01/19 02:51:57;;;;;;;;;;;;;;;11.24;70.53;99690.97;1051775;28;1453;-64
2023/01/19 02:52:47;;;;;;;;;;;;;;;11.23;69.96;99683.09;1052326;28;710;-64
2023/01/19 02:53:38;;;;;;;;;;;;;;;11.23;70.52;99686.63;1052641;28;1067;-64
2023/01/19 02:54:28;;;;;;;;;;;;;;;11.21;70.11;99685.91;1052442;28;646;-64
2023/01/19 02:55:19;;;;;;;;;;;;;;;11.19;70.11;99685.19;1053431;28;724;-64
2023/01/19 02:56:09;;;;;;;;;;;;;;;11.21;70.78;99687.72;1052029;28;1221;-64
2023/01/19 02:57:00;;;;;;;;;;;;;;;11.24;70.59;99693.63;1052486;28;782;-64
2023/01/19 02:57:50;;;;;;;;;;;;;;;11.21;69.93;99688.56;1051598;28;1134;-64
2023/01/19 02:58:40;;;;;;;;;;;;;;;11.24;70.43;99684.78;1048881;28;703;-64
2023/01/19 02:59:31;;;;;;;;;;;;;;;11.23;69.91;99686.63;1049584;28;1164;-64
2023/01/19 03:00:22;;;;;;;;;;;;;;;11.21;69.71;99682.38;1048764;28;756;-64
2023/01/19 03:01:12;;;;;;;;;;;;;;;11.22;70.42;99687.59;1049296;28;1158;-64
2023/01/19 03:02:03;;;;;;;;;;;;;;;11.23;69.91;99683.94;1049645;28;1086;-64
2023/01/19 03:02:53;;;;;;;;;;;;;;;11.21;70.30;99687.72;1052547;28;696;-64
2023/01/19 03:03:45;;;;;;;;;;;;;;;11.22;70.18;99684.91;1047968;28;638;-64
2023/01/19 03:04:35;;;;;;;;;;;;;;;11.19;70.12;99676.34;1051705;28;1300;-64
2023/01/19 03:05:26;;;;;;;;;;;;;;;11.21;70.04;99677.91;1052410;28;639;-64
2023/01/19 03:06:16;;;;;;;;;;;;;;;11.21;69.94;99674.38;1051917;28;1983;-64
2023/01/19 03:07:06;;;;;;;;;;;;;;;11.21;69.99;99682.38;1052237;28;1690;-64
2023/01/19 03:07:57;;;;;;;;;;;;;;;11.20;70.01;99681.53;1049991;28;631;-64
2023/01/19 03:08:47;;;;;;;;;;;;;;;11.20;70.42;99675.34;1049326;28;645;-64
2023/01/19 03:09:40;;;;;;;;;;;;;;;11.19;70.29;99671.00;1049958;28;913;-64
2023/01/19 03:10:30;;;;;;;;;;;;;;;11.20;69.86;99670.88;1052121;28;706;-65
2023/01/19 03:11:21;;;;;;;;;;;;;;;11.18;70.38;99675.50;1051915;28;1202;-65
2023/01/19 03:12:11;;;;;;;;;;;;;;;11.19;70.57;99681.66;1051642;28;704;-64
2023/01/19 03:13:02;;;;;;;;;;;;;;;11.20;70.76;99686.03;1049382;28;1055;-64
2023/01/19 03:13:52;;;;;;;;;;;;;;;11.20;70.33;99686.88;1048901;28;641;-64
2023/01/19 03:14:42;;;;;;;;;;;;;;;11.21;70.63;99687.72;1045362;28;656;-64
2023/01/19 03:15:33;;;;;;;;;;;;;;;11.21;70.02;99693.06;1049186;28;629;-65
2023/01/19 03:16:23;;;;;;;;;;;;;;;11.20;70.01;99688.69;1048707;28;673;-64
2023/01/19 03:17:14;;;;;;;;;;;;;;;11.20;70.65;99700.19;1051937;28;1147;-64
2023/01/19 03:18:04;;;;;;;;;;;;;;;11.22;69.98;99698.25;1048614;28;677;-64
2023/01/19 03:18:54;;;;;;;;;;;;;;;11.23;70.72;99704.44;1049806;28;1139;-64
2023/01/19 03:19:45;;;;;;;;;;;;;;;11.21;70.50;99701.91;1048551;28;602;-64
2023/01/19 03:20:35;;;;;;;;;;;;;;;11.19;70.37;99692.34;1052264;28;1214;-64
2023/01/19 03:21:26;;;;;;;;;;;;;;;11.19;70.12;99700.34;1045362;28;771;-64
2023/01/19 03:22:16;;;;;;;;;;;;;;;11.19;70.33;99690.50;1044922;28;710;-64
2023/01/19 03:23:07;;;;;;;;;;;;;;;11.19;70.09;99698.50;1053384;28;643;-64
2023/01/19 03:23:57;;;;;;;;;;;;;;;11.19;70.86;99700.34;1051983;28;677;-64
2023/01/19 03:24:47;;;;;;;;;;;;;;;11.17;70.34;99697.78;1052247;28;653;-64
2023/01/19 03:25:38;;;;;;;;;;;;;;;11.17;71.05;99696.94;1053150;28;1111;-64
2023/01/19 03:26:29;;;;;;;;;;;;;;;11.16;70.24;99701.44;1052750;28;1971;-64
2023/01/19 03:27:19;;;;;;;;;;;;;;;11.18;70.67;99701.31;1049324;28;1000;-64
2023/01/19 03:28:09;;;;;;;;;;;;;;;11.16;70.96;99704.09;1052324;28;720;-64
2023/01/19 03:29:00;;;;;;;;;;;;;;;11.16;71.04;99714.78;1051815;28;717;-64
2023/01/19 03:29:50;;;;;;;;;;;;;;;11.17;70.36;99708.47;1051996;28;1235;-64
2023/01/19 03:30:41;;;;;;;;;;;;;;;11.18;70.71;99709.31;1052402;28;813;-64
2023/01/19 03:31:31;;;;;;;;;;;;;;;11.19;70.97;99714.50;1052071;28;670;-64
2023/01/19 03:32:22;;;;;;;;;;;;;;;11.18;70.94;99715.50;1048245;28;732;-64
2023/01/19 03:33:12;;;;;;;;;;;;;;;11.21;71.00;99719.72;1051460;28;638;-64
2023/01/19 03:34:02;;;;;;;;;;;;;;;11.23;70.74;99718.63;1049959;28;1047;-64
2023/01/19 03:34:53;;;;;;;;;;;;;;;11.22;70.63;99719.59;1052034;28;701;-64
2023/01/19 03:35:43;;;;;;;;;;;;;;;11.24;70.61;99720.31;1048538;28;618;-64
2023/01/19 03:36:34;;;;;;;;;;;;;;;11.26;70.72;99713.03;1048746;28;717;-64
2023/01/19 03:37:24;;;;;;;;;;;;;;;11.27;70.25;99714.72;1048097;28;643;-64
2023/01/19 03:38:15;;;;;;;;;;;;;;;11.26;70.75;99712.19;1050956;28;1155;-64
2023/01/19 03:39:05;;;;;;;;;;;;;;;11.27;70.32;99717.38;1052186;28;623;-64
2023/01/19 03:39:56;;;;;;;;;;;;;;;11.29;70.69;99720.72;1051685;28;1186;-64
2023/01/19 03:40:47;;;;;;;;;;;;;;;11.27;70.57;99725.38;1052229;28;678;-64
2023/01/19 03:41:37;;;;;;;;;;;;;;;11.25;70.35;99724.66;1048612;28;1166;-64
2023/01/19 03:42:27;;;;;;;;;;;;;;;11.26;70.00;99720.19;1048330;28;696;-64
2023/01/19 03:43:18;;;;;;;;;;;;;;;11.23;70.55;99723.94;1052087;28;1274;-64
2023/01/19 03:44:08;;;;;;;;;;;;;;;11.23;70.43;99723.94;1052619;28;600;-64
2023/01/19 03:44:59;;;;;;;;;;;;;;;11.21;70.14;99728.56;1052343;28;689;-64
2023/01/19 03:45:49;;;;;;;;;;;;;;;11.22;70.78;99727.59;1052054;28;666;-64
2023/01/19 03:46:40;;;;;;;;;;;;;;;11.23;70.66;99731.94;1051128;28;1358;-64
2023/01/19 03:47:30;;;;;;;;;;;;;;;11.22;71.03;99732.91;1052607;28;638;-64
2023/01/19 03:48:20;;;;;;;;;;;;;;;11.20;70.82;99737.53;1046716;28;1096;-64
2023/01/19 03:49:11;;;;;;;;;;;;;;;11.19;70.46;99741.19;1049976;28;707;-65
2023/01/19 03:50:01;;;;;;;;;;;;;;;11.21;70.17;99743.72;1051794;28;1107;-64
2023/01/19 03:50:52;;;;;;;;;;;;;;;11.20;70.89;99740.19;1052333;28;708;-64
2023/01/19 03:51:42;;;;;;;;;;;;;;;11.19;70.64;99749.19;1048518;28;605;-64
2023/01/19 03:52:33;;;;;;;;;;;;;;;11.18;69.96;99739.47;1049147;28;1111;-64
2023/01/19 03:53:23;;;;;;;;;;;;;;;11.20;70.97;99734.03;1048550;28;614;-64
2023/01/19 03:54:14;;;;;;;;;;;;;;;11.18;70.28;99736.81;1048173;28;725;-64
2023/01/19 03:55:04;;;;;;;;;;;;;;;11.19;70.34;99738.50;1051782;28;1532;-64
2023/01/19 03:55:54;;;;;;;;;;;;;;;11.20;70.27;99745.53;1050781;28;694;-64
2023/01/19 03:56:45;;;;;;;;;;;;;;;11.18;70.90;99742.16;1052666;28;1306;-64
2023/01/19 03:57:35;;;;;;;;;;;;;;;11.18;70.13;99738.63;1052096;28;718;-64
2023/01/19 03:58:27;;;;;;;;;;;;;;;11.18;70.29;99735.97;1052225;28;677;-64
2023/01/19 03:59:18;;;;;;;;;;;;;;;11.20;70.34;99739.34;1052377;28;1194;-64
2023/01/19 04:00:09;;;;;;;;;;;;;;;11.22;70.23;99748.06;1052805;28;634;-64
2023/01/19 04:00:59;;;;;;;;;;;;;;;11.21;70.68;99747.22;1049512;28;1004;-64
2023/01/19 04:01:50;;;;;;;;;;;;;;;11.19;69.96;99738.50;1052235;28;1260;-64
2023/01/19 04:02:40;;;;;;;;;;;;;;;11.22;70.41;99742.75;1052595;28;1058;-64
2023/01/19 04:03:31;;;;;;;;;;;;;;;11.20;70.70;99745.53;1052225;28;867;-64
2023/01/19 04:04:21;;;;;;;;;;;;;;;11.18;70.80;99747.47;1048364;28;748;-64
2023/01/19 04:05:13;;;;;;;;;;;;;;;11.20;70.09;99744.69;1048451;28;1164;-64
2023/01/19 04:06:03;;;;;;;;;;;;;;;11.19;70.41;99749.19;1049068;28;649;-65
2023/01/19 04:06:54;;;;;;;;;;;;;;;11.21;70.56;99741.91;1048379;28;642;-64
2023/01/19 04:07:44;;;;;;;;;;;;;;;11.19;70.65;99745.66;1049376;28;1142;-64
2023/01/19 04:08:35;;;;;;;;;;;;;;;11.18;70.77;99743.97;1048820;28;681;-64
2023/01/19 04:09:26;;;;;;;;;;;;;;;11.17;69.98;99745.78;1044628;28;643;-64
2023/01/19 04:10:16;;;;;;;;;;;;;;;11.18;69.93;99739.47;1048930;28;803;-64
2023/01/19 04:11:07;;;;;;;;;;;;;;;11.17;70.02;99740.47;1052409;28;1209;-64
2023/01/19 04:11:57;;;;;;;;;;;;;;;11.16;70.55;99744.09;1051870;28;749;-64
2023/01/19 04:12:48;;;;;;;;;;;;;;;11.16;70.07;99743.25;1051973;28;1159;-64
2023/01/19 04:13:38;;;;;;;;;;;;;;;11.15;70.63;99747.75;1051939;28;769;-64
2023/01/19 04:14:28;;;;;;;;;;;;;;;11.16;70.28;99749.44;1052147;28;748;-64
2023/01/19 04:15:19;;;;;;;;;;;;;;;11.15;70.04;99745.06;1050057;28;650;-64
2023/01/19 04:16:09;;;;;;;;;;;;;;;11.14;70.88;99752.22;1051756;28;1276;-64
2023/01/19 04:17:00;;;;;;;;;;;;;;;11.16;70.45;99754.75;1048837;28;1644;-64
2023/01/19 04:17:50;;;;;;;;;;;;;;;11.14;70.44;99757.56;1050202;28;1171;-64
2023/01/19 04:18:41;;;;;;;;;;;;;;;11.13;70.40;99750.53;1052232;28;774;-64
2023/01/19 04:19:31;;;;;;;;;;;;;;;11.13;70.97;99757.69;1051711;28;1182;-64
2023/01/19 04:20:22;;;;;;;;;;;;;;;11.11;70.98;99760.47;1048516;28;622;-64
2023/01/19 04:21:12;;;;;;;;;;;;;;;11.13;70.87;99747.88;1047731;28;1040;-64
2023/01/19 04:22:03;;;;;;;;;;;;;;;11.18;70.00;99749.31;1048029;28;717;-64
2023/01/19 04:22:54;;;;;;;;;;;;;;;11.13;70.16;99753.19;1051480;28;1163;-64
2023/01/19 04:23:45;;;;;;;;;;;;;;;11.14;70.94;99751.38;1048206;28;650;-64
2023/01/19 04:24:35;;;;;;;;;;;;;;;11.12;70.71;99753.31;1051470;28;654;-65
2023/01/19 04:25:26;;;;;;;;;;;;;;;11.10;70.16;99755.31;1048972;28;650;-64
2023/01/19 04:26:16;;;;;;;;;;;;;;;11.09;70.44;99748.28;1051656;28;1901;-64
2023/01/19 04:27:07;;;;;;;;;;;;;;;11.11;70.69;99762.31;1052160;28;634;-64
2023/01/19 04:27:57;;;;;;;;;;;;;;;11.10;70.83;99757.97;1052215;28;1210;-64
2023/01/19 04:28:48;;;;;;;;;;;;;;;11.10;70.74;99760.63;1052068;28;693;-64
2023/01/19 04:29:38;;;;;;;;;;;;;;;11.09;70.52;99756.28;1051824;28;646;-64
2023/01/19 04:30:28;;;;;;;;;;;;;;;11.09;70.43;99754.47;1051921;28;1197;-64
2023/01/19 04:31:19;;;;;;;;;;;;;;;11.09;71.08;99759.78;1052181;28;698;-64
2023/01/19 04:32:09;;;;;;;;;;;;;;;11.08;70.76;99752.75;1053507;28;1035;-65
2023/01/19 04:33:00;;;;;;;;;;;;;;;11.08;70.79;99757.25;1053146;28;702;-64
2023/01/19 04:33:51;;;;;;;;;;;;;;;11.07;71.01;99760.88;1051777;28;1198;-64
2023/01/19 04:34:41;;;;;;;;;;;;;;;11.07;71.01;99760.88;1051766;28;749;-64
2023/01/19 04:35:33;;;;;;;;;;;;;;;11.07;70.78;99759.06;1052081;28;638;-64
2023/01/19 04:36:23;;;;;;;;;;;;;;;11.06;70.77;99768.03;1049373;28;1388;-64
2023/01/19 04:37:14;;;;;;;;;;;;;;;11.09;70.79;99765.13;1053219;28;776;-64
2023/01/19 04:38:04;;;;;;;;;;;;;;;11.10;71.14;99766.81;1048498;28;1051;-64
2023/01/19 04:38:55;;;;;;;;;;;;;;;11.12;70.58;99769.31;1052107;28;673;-64
2023/01/19 04:39:45;;;;;;;;;;;;;;;11.13;70.38;99766.53;1050025;28;1146;-64